createdAt,value
2023-12-27T00:00:11.102Z,100089.90
2023-12-27T00:01:11.116Z,100083.19
2023-12-27T00:02:11.092Z,100079.61
2023-12-27T00:03:11.188Z,100078.02
2023-12-27T00:04:11.273Z,100078.11
2023-12-27T00:05:11.091Z,100069.51
2023-12-27T00:06:11.204Z,100068.89
2023-12-27T00:07:11.125Z,100068.39
2023-12-27T00:08:11.086Z,100064.30
2023-12-27T00:09:11.194Z,100062.06
2023-12-27T00:10:11.078Z,100063.25
2023-12-27T00:11:11.109Z,100064.96
2023-12-27T00:12:11.103Z,100063.41
2023-12-27T00:13:11.076Z,100063.07
2023-12-27T00:14:11.124Z,100065.47
2023-12-27T00:15:11.111Z,100064.20
2023-12-27T00:16:11.080Z,100065.16
2023-12-27T00:17:11.091Z,100066.17
2023-12-27T00:18:11.156Z,100062.88
2023-12-27T00:19:11.225Z,100064.91
2023-12-27T00:20:11.084Z,100063.35
2023-12-27T00:21:11.110Z,100059.04
2023-12-27T00:22:11.090Z,100057.40
2023-12-27T00:23:11.083Z,100054.61
2023-12-27T00:24:11.174Z,100053.58
2023-12-27T00:25:11.079Z,100048.24
2023-12-27T00:26:11.084Z,100045.66
2023-12-27T00:27:11.107Z,100045.15
2023-12-27T00:28:11.086Z,100040.72
2023-12-27T00:29:11.089Z,100041.21
2023-12-27T00:30:11.195Z,100040.39
2023-12-27T00:31:11.232Z,100039.30
2023-12-27T00:32:14.061Z,100038.63
2023-12-27T00:33:11.214Z,100039.30
2023-12-27T00:34:11.265Z,100040.34
2023-12-27T00:35:11.075Z,100033.96
2023-12-27T00:36:13.106Z,100034.88
2023-12-27T00:37:11.067Z,100027.44
2023-12-27T00:38:11.060Z,100025.38
2023-12-27T00:39:13.171Z,100019.17
2023-12-27T00:40:11.070Z,100017.42
2023-12-27T00:41:11.075Z,100013.93
2023-12-27T00:42:11.155Z,100015.85
2023-12-27T00:43:11.069Z,100013.11
2023-12-27T00:44:11.069Z,100010.73
2023-12-27T00:45:11.184Z,100007.06
2023-12-27T00:46:11.072Z,100002.98
2023-12-27T00:47:11.059Z,99997.67
2023-12-27T00:48:11.214Z,99993.49
2023-12-27T00:49:11.130Z,99988.52
2023-12-27T00:50:11.058Z,99978.82
2023-12-27T00:51:19.069Z,99983.25
2023-12-27T00:52:11.066Z,99982.24
2023-12-27T00:53:11.065Z,99981.41
2023-12-27T00:54:11.101Z,99975.67
2023-12-27T00:55:11.068Z,99972.72
2023-12-27T00:56:11.137Z,99967.51
2023-12-27T00:57:11.099Z,99964.94
2023-12-27T00:58:11.073Z,99957.00
2023-12-27T00:59:11.056Z,99953.40
2023-12-27T01:00:11.110Z,99956.19
2023-12-27T01:01:11.126Z,99947.98
2023-12-27T01:02:11.058Z,99944.28
2023-12-27T01:03:11.137Z,99943.91
2023-12-27T01:04:11.206Z,99937.64
2023-12-27T01:05:11.126Z,99937.83
2023-12-27T01:06:11.133Z,99937.97
2023-12-27T01:07:11.061Z,99929.69
2023-12-27T01:08:11.076Z,99926.06
2023-12-27T01:09:12.083Z,99928.55
2023-12-27T01:10:11.066Z,99925.79
2023-12-27T01:11:11.074Z,99922.03
2023-12-27T01:12:11.121Z,99916.09
2023-12-27T01:13:11.074Z,99919.45
2023-12-27T01:14:11.067Z,99915.20
2023-12-27T01:15:11.105Z,99910.96
2023-12-27T01:16:11.063Z,99911.55
2023-12-27T01:17:11.066Z,99911.62
2023-12-27T01:18:11.164Z,99914.97
2023-12-27T01:19:11.114Z,99908.70
2023-12-27T01:20:11.069Z,99916.32
2023-12-27T01:21:11.122Z,99907.83
2023-12-27T01:22:11.062Z,99912.60
2023-12-27T01:23:11.071Z,99907.67
2023-12-27T01:24:11.095Z,99902.96
2023-12-27T01:25:11.064Z,99904.66
2023-12-27T01:26:11.064Z,99905.38
2023-12-27T01:27:11.123Z,99904.94
2023-12-27T01:28:11.063Z,99895.98
2023-12-27T01:29:11.072Z,99893.03
2023-12-27T01:30:11.164Z,99886.77
2023-12-27T01:31:11.202Z,99883.13
2023-12-27T01:32:11.063Z,99882.13
2023-12-27T01:33:11.229Z,99879.79
2023-12-27T01:34:16.079Z,99875.50
2023-12-27T01:35:13.432Z,99866.40
2023-12-27T01:36:11.131Z,99865.62
2023-12-27T01:37:11.068Z,99862.32
2023-12-27T01:38:11.070Z,99859.43
2023-12-27T01:39:11.119Z,99860.46
2023-12-27T01:40:11.093Z,99863.20
2023-12-27T01:41:11.070Z,99862.92
2023-12-27T01:42:11.153Z,99855.74
2023-12-27T01:43:11.073Z,99855.35
2023-12-27T01:44:11.073Z,99851.75
2023-12-27T01:45:11.124Z,99848.38
2023-12-27T01:46:11.073Z,99850.57
2023-12-27T01:47:11.073Z,99845.00
2023-12-27T01:48:12.018Z,99845.84
2023-12-27T01:49:11.164Z,99843.54
2023-12-27T01:50:11.137Z,99843.97
2023-12-27T01:51:11.087Z,99834.46
2023-12-27T01:52:11.075Z,99832.54
2023-12-27T01:53:11.071Z,99826.14
2023-12-27T01:54:11.102Z,99825.04
2023-12-27T01:55:11.083Z,99823.49
2023-12-27T01:56:11.081Z,99818.72
2023-12-27T01:57:11.106Z,99817.07
2023-12-27T01:58:13.085Z,99822.37
2023-12-27T01:59:11.079Z,99814.87
2023-12-27T02:00:11.148Z,99806.74
2023-12-27T02:01:11.141Z,99806.19
2023-12-27T02:02:11.081Z,99804.40
2023-12-27T02:03:11.233Z,99795.29
2023-12-27T02:04:11.317Z,99793.96
2023-12-27T02:05:11.278Z,99787.96
2023-12-27T02:06:11.132Z,99787.24
2023-12-27T02:07:21.480Z,99787.14
2023-12-27T02:08:13.134Z,99787.76
2023-12-27T02:09:11.099Z,99782.03
2023-12-27T02:10:11.078Z,99774.35
2023-12-27T02:11:11.074Z,99776.27
2023-12-27T02:12:11.084Z,99776.53
2023-12-27T02:13:11.081Z,99775.83
2023-12-27T02:14:11.084Z,99773.49
2023-12-27T02:15:11.110Z,99773.51
2023-12-27T02:16:11.076Z,99769.18
2023-12-27T02:17:11.080Z,99764.25
2023-12-27T02:18:11.273Z,99763.79
2023-12-27T02:19:18.144Z,99764.72
2023-12-27T02:20:11.084Z,99760.07
2023-12-27T02:21:11.106Z,99759.47
2023-12-27T02:22:13.092Z,99755.81
2023-12-27T02:23:12.081Z,99755.87
2023-12-27T02:24:12.140Z,99749.68
2023-12-27T02:25:11.075Z,99748.75
2023-12-27T02:26:11.074Z,99745.74
2023-12-27T02:27:11.133Z,99734.68
2023-12-27T02:28:11.080Z,99735.65
2023-12-27T02:29:11.086Z,99730.79
2023-12-27T02:30:15.129Z,99732.81
2023-12-27T02:31:11.185Z,99727.52
2023-12-27T02:32:11.076Z,99725.99
2023-12-27T02:33:11.328Z,99724.43
2023-12-27T02:34:11.331Z,99720.95
2023-12-27T02:35:11.283Z,99716.41
2023-12-27T02:36:11.114Z,99717.50
2023-12-27T02:37:11.079Z,99717.19
2023-12-27T02:38:11.110Z,99710.11
2023-12-27T02:39:11.116Z,99711.98
2023-12-27T02:40:11.080Z,99705.41
2023-12-27T02:41:11.071Z,99703.26
2023-12-27T02:42:11.112Z,99700.54
2023-12-27T02:43:11.081Z,99694.90
2023-12-27T02:44:11.071Z,99695.30
2023-12-27T02:45:11.103Z,99692.03
2023-12-27T02:46:11.079Z,99686.55
2023-12-27T02:47:11.076Z,99685.73
2023-12-27T02:48:11.225Z,99683.29
2023-12-27T02:49:11.156Z,99682.43
2023-12-27T02:50:11.097Z,99684.99
2023-12-27T02:51:11.147Z,99679.76
2023-12-27T02:52:11.094Z,99671.37
2023-12-27T02:53:11.076Z,99675.35
2023-12-27T02:54:11.126Z,99679.30
2023-12-27T02:55:11.091Z,99676.80
2023-12-27T02:56:11.081Z,99665.90
2023-12-27T02:57:11.094Z,99666.98
2023-12-27T02:58:11.077Z,99671.30
2023-12-27T02:59:11.088Z,99666.97
2023-12-27T03:00:11.110Z,99663.80
2023-12-27T03:01:11.111Z,99662.47
2023-12-27T03:02:11.093Z,99657.82
2023-12-27T03:03:11.085Z,99658.25
2023-12-27T03:04:11.086Z,99650.68
2023-12-27T03:05:11.154Z,99652.73
2023-12-27T03:06:11.141Z,99652.84
2023-12-27T03:07:12.082Z,99648.89
2023-12-27T03:08:11.080Z,99643.95
2023-12-27T03:09:11.141Z,99629.03
2023-12-27T03:10:11.093Z,99632.23
2023-12-27T03:11:11.077Z,99632.46
2023-12-27T03:12:11.103Z,99630.97
2023-12-27T03:13:11.082Z,99637.01
2023-12-27T03:14:11.133Z,99624.64
2023-12-27T03:15:11.190Z,99616.72
2023-12-27T03:16:11.081Z,99610.87
2023-12-27T03:17:11.087Z,99606.41
2023-12-27T03:18:11.210Z,99609.36
2023-12-27T03:19:11.124Z,99603.68
2023-12-27T03:20:11.134Z,99606.97
2023-12-27T03:21:11.084Z,99601.32
2023-12-27T03:22:11.073Z,99596.80
2023-12-27T03:23:11.092Z,99595.57
2023-12-27T03:24:11.128Z,99595.76
2023-12-27T03:25:11.073Z,99587.65
2023-12-27T03:26:11.088Z,99579.59
2023-12-27T03:27:11.113Z,99573.48
2023-12-27T03:28:11.085Z,99576.84
2023-12-27T03:29:11.083Z,99568.43
2023-12-27T03:30:11.257Z,99565.46
2023-12-27T03:31:11.146Z,99559.17
2023-12-27T03:32:11.065Z,99554.95
2023-12-27T03:33:11.161Z,99553.47
2023-12-27T03:34:11.169Z,99551.70
2023-12-27T03:35:11.075Z,99540.46
2023-12-27T03:36:11.092Z,99538.64
2023-12-27T03:37:11.072Z,99531.43
2023-12-27T03:38:11.065Z,99528.22
2023-12-27T03:39:11.094Z,99523.53
2023-12-27T03:40:11.080Z,99521.95
2023-12-27T03:41:11.063Z,99522.20
2023-12-27T03:42:11.105Z,99526.96
2023-12-27T03:43:11.057Z,99521.27
2023-12-27T03:44:11.068Z,99520.91
2023-12-27T03:45:11.064Z,99520.04
2023-12-27T03:46:11.057Z,99514.79
2023-12-27T03:47:11.081Z,99509.16
2023-12-27T03:48:11.182Z,99499.71
2023-12-27T03:49:11.128Z,99494.48
2023-12-27T03:50:11.074Z,99494.97
2023-12-27T03:51:11.074Z,99495.04
2023-12-27T03:52:11.059Z,99489.15
2023-12-27T03:53:11.074Z,99489.93
2023-12-27T03:54:11.133Z,99485.60
2023-12-27T03:55:11.062Z,99481.80
2023-12-27T03:56:12.089Z,99478.51
2023-12-27T03:57:11.110Z,99480.44
2023-12-27T03:58:11.070Z,99472.76
2023-12-27T03:59:11.068Z,99465.96
2023-12-27T04:00:11.097Z,99463.19
2023-12-27T04:01:11.112Z,99450.80
2023-12-27T04:02:11.068Z,99452.38
2023-12-27T04:03:11.121Z,99449.78
2023-12-27T04:04:11.178Z,99448.43
2023-12-27T04:05:11.100Z,99442.82
2023-12-27T04:06:11.100Z,99434.14
2023-12-27T04:07:11.064Z,99433.77
2023-12-27T04:08:11.068Z,99434.94
2023-12-27T04:09:11.127Z,99437.67
2023-12-27T04:10:11.068Z,99442.32
2023-12-27T04:11:11.067Z,99436.46
2023-12-27T04:12:11.153Z,99435.43
2023-12-27T04:13:11.071Z,99435.34
2023-12-27T04:14:11.072Z,99439.01
2023-12-27T04:15:11.131Z,99438.96
2023-12-27T04:16:11.064Z,99437.08
2023-12-27T04:17:11.074Z,99433.66
2023-12-27T04:18:12.210Z,99431.68
2023-12-27T04:19:11.279Z,99429.81
2023-12-27T04:20:11.077Z,99436.53
2023-12-27T04:21:11.118Z,99433.74
2023-12-27T04:22:11.061Z,99426.27
2023-12-27T04:23:11.090Z,99415.01
2023-12-27T04:24:11.166Z,99416.10
2023-12-27T04:25:11.069Z,99415.79
2023-12-27T04:26:11.094Z,99412.82
2023-12-27T04:27:11.086Z,99412.27
2023-12-27T04:28:11.069Z,99412.11
2023-12-27T04:29:11.072Z,99411.20
2023-12-27T04:30:11.146Z,99405.07
2023-12-27T04:31:11.140Z,99406.86
2023-12-27T04:32:11.078Z,99398.68
2023-12-27T04:33:11.209Z,99396.51
2023-12-27T04:34:11.167Z,99398.10
2023-12-27T04:35:11.084Z,99389.96
2023-12-27T04:36:11.089Z,99383.88
2023-12-27T04:37:11.119Z,99378.24
2023-12-27T04:38:11.074Z,99377.86
2023-12-27T04:39:11.097Z,99373.13
2023-12-27T04:40:11.065Z,99376.59
2023-12-27T04:41:13.079Z,99381.80
2023-12-27T04:42:11.151Z,99381.81
2023-12-27T04:43:11.076Z,99381.30
2023-12-27T04:44:11.087Z,99376.12
2023-12-27T04:45:11.146Z,99376.25
2023-12-27T04:46:11.102Z,99364.73
2023-12-27T04:47:12.077Z,99362.61
2023-12-27T04:48:11.260Z,99359.80
2023-12-27T04:49:11.270Z,99348.23
2023-12-27T04:50:11.218Z,99344.90
2023-12-27T04:51:11.129Z,99347.14
2023-12-27T04:52:11.073Z,99344.91
2023-12-27T04:53:11.077Z,99339.28
2023-12-27T04:54:11.100Z,99347.69
2023-12-27T04:55:11.083Z,99348.40
2023-12-27T04:56:11.116Z,99338.37
2023-12-27T04:57:11.209Z,99321.46
2023-12-27T04:58:11.074Z,99327.32
2023-12-27T04:59:11.079Z,99333.73
2023-12-27T05:00:11.137Z,99325.95
2023-12-27T05:01:11.111Z,99318.29
2023-12-27T05:02:11.077Z,99313.19
2023-12-27T05:03:11.617Z,99313.05
2023-12-27T05:04:11.163Z,99306.71
2023-12-27T05:05:11.079Z,99311.38
2023-12-27T05:06:11.108Z,99309.43
2023-12-27T05:07:11.067Z,99304.54
2023-12-27T05:08:11.075Z,99307.14
2023-12-27T05:09:11.117Z,99307.75
2023-12-27T05:10:11.082Z,99303.46
2023-12-27T05:11:17.078Z,99300.15
2023-12-27T05:12:11.113Z,99293.58
2023-12-27T05:13:11.071Z,99290.20
2023-12-27T05:14:11.069Z,99287.83
2023-12-27T05:15:11.108Z,99278.64
2023-12-27T05:16:13.065Z,99275.70
2023-12-27T05:17:11.073Z,99270.54
2023-12-27T05:18:11.217Z,99267.61
2023-12-27T05:19:11.127Z,99266.84
2023-12-27T05:20:11.073Z,99265.21
2023-12-27T05:21:11.094Z,99260.21
2023-12-27T05:22:11.070Z,99254.72
2023-12-27T05:23:11.070Z,99258.43
2023-12-27T05:24:11.096Z,99250.92
2023-12-27T05:25:11.068Z,99241.47
2023-12-27T05:26:11.074Z,99238.42
2023-12-27T05:27:11.113Z,99235.42
2023-12-27T05:28:11.089Z,99232.06
2023-12-27T05:29:11.070Z,99227.33
2023-12-27T05:30:13.162Z,99228.69
2023-12-27T05:31:11.291Z,99225.26
2023-12-27T05:32:11.068Z,99223.84
2023-12-27T05:33:11.324Z,99223.41
2023-12-27T05:34:11.229Z,99224.93
2023-12-27T05:35:11.069Z,99221.66
2023-12-27T05:36:11.094Z,99218.24
2023-12-27T05:37:11.084Z,99220.35
2023-12-27T05:38:11.076Z,99216.71
2023-12-27T05:39:11.111Z,99217.58
2023-12-27T05:40:11.082Z,99211.97
2023-12-27T05:41:11.084Z,99211.00
2023-12-27T05:42:11.105Z,99205.82
2023-12-27T05:43:11.078Z,99201.70
2023-12-27T05:44:11.075Z,99204.08
2023-12-27T05:45:11.172Z,99194.24
2023-12-27T05:46:11.073Z,99194.88
2023-12-27T05:47:11.099Z,99197.55
2023-12-27T05:48:11.192Z,99192.55
2023-12-27T05:49:11.151Z,99189.55
2023-12-27T05:50:11.080Z,99189.32
2023-12-27T05:51:11.222Z,99185.62
2023-12-27T05:52:11.085Z,99189.75
2023-12-27T05:53:13.028Z,99191.05
2023-12-27T05:54:11.174Z,99187.30
2023-12-27T05:55:11.084Z,99187.29
2023-12-27T05:56:11.082Z,99191.58
2023-12-27T05:57:11.133Z,99184.98
2023-12-27T05:58:11.093Z,99183.52
2023-12-27T05:59:11.079Z,99183.46
2023-12-27T06:00:11.101Z,99181.60
2023-12-27T06:01:11.135Z,99181.77
2023-12-27T06:02:11.084Z,99181.10
2023-12-27T06:03:11.305Z,99182.29
2023-12-27T06:04:11.086Z,99175.77
2023-12-27T06:05:11.164Z,99176.24
2023-12-27T06:06:11.111Z,99175.05
2023-12-27T06:07:11.083Z,99176.24
2023-12-27T06:08:11.076Z,99177.96
2023-12-27T06:09:11.128Z,99172.30
2023-12-27T06:10:11.084Z,99174.97
2023-12-27T06:11:15.084Z,99169.78
2023-12-27T06:12:12.110Z,99164.21
2023-12-27T06:13:11.080Z,99157.14
2023-12-27T06:14:11.079Z,99158.92
2023-12-27T06:15:11.135Z,99150.43
2023-12-27T06:16:12.081Z,99148.82
2023-12-27T06:17:11.081Z,99154.31
2023-12-27T06:18:11.417Z,99150.21
2023-12-27T06:19:11.147Z,99150.87
2023-12-27T06:20:11.093Z,99147.00
2023-12-27T06:21:11.124Z,99141.97
2023-12-27T06:22:11.085Z,99140.02
2023-12-27T06:23:11.085Z,99128.24
2023-12-27T06:24:11.119Z,99122.25
2023-12-27T06:25:11.089Z,99125.05
2023-12-27T06:26:11.081Z,99123.24
2023-12-27T06:27:11.118Z,99118.72
2023-12-27T06:28:11.093Z,99117.41
2023-12-27T06:29:11.087Z,99107.83
2023-12-27T06:30:11.214Z,99103.89
2023-12-27T06:31:11.230Z,99109.15
2023-12-27T06:32:11.088Z,99102.07
2023-12-27T06:33:11.261Z,99099.05
2023-12-27T06:34:11.229Z,99092.21
2023-12-27T06:35:11.063Z,99089.60
2023-12-27T06:36:11.127Z,99083.23
2023-12-27T06:37:11.155Z,99079.07
2023-12-27T06:38:11.056Z,99077.92
2023-12-27T06:39:11.094Z,99075.69
2023-12-27T06:40:11.067Z,99070.62
2023-12-27T06:41:11.066Z,99069.73
2023-12-27T06:42:11.123Z,99071.52
2023-12-27T06:43:11.075Z,99063.84
2023-12-27T06:44:11.062Z,99062.13
2023-12-27T06:45:11.103Z,99061.31
2023-12-27T06:46:11.066Z,99053.96
2023-12-27T06:47:11.061Z,99054.31
2023-12-27T06:48:11.201Z,99051.31
2023-12-27T06:49:11.275Z,99049.14
2023-12-27T06:50:11.064Z,99044.12
2023-12-27T06:51:11.071Z,99042.75
2023-12-27T06:52:11.068Z,99040.55
2023-12-27T06:53:11.063Z,99040.22
2023-12-27T06:54:11.093Z,99031.78
2023-12-27T06:55:11.074Z,99028.89
2023-12-27T06:56:11.065Z,99022.19
2023-12-27T06:57:11.119Z,99020.96
2023-12-27T06:58:11.061Z,99019.38
2023-12-27T06:59:11.062Z,99013.49
2023-12-27T07:00:11.313Z,99009.49
2023-12-27T07:01:11.263Z,99002.59
2023-12-27T07:02:12.063Z,99007.44
2023-12-27T07:03:11.131Z,99002.04
2023-12-27T07:04:11.266Z,99001.82
2023-12-27T07:05:11.144Z,98999.39
2023-12-27T07:06:11.230Z,99000.10
2023-12-27T07:07:11.084Z,99002.36
2023-12-27T07:08:11.062Z,98999.64
2023-12-27T07:09:11.154Z,99001.37
2023-12-27T07:10:13.423Z,99003.04
2023-12-27T07:11:15.065Z,99002.46
2023-12-27T07:12:11.195Z,98991.36
2023-12-27T07:13:11.064Z,98993.35
2023-12-27T07:14:11.064Z,98992.72
2023-12-27T07:15:11.125Z,98988.06
2023-12-27T07:16:11.066Z,98986.02
2023-12-27T07:17:11.064Z,98987.47
2023-12-27T07:18:11.361Z,98979.75
2023-12-27T07:19:11.207Z,98977.14
2023-12-27T07:20:11.064Z,98974.55
2023-12-27T07:21:11.148Z,98973.94
2023-12-27T07:22:11.067Z,98975.79
2023-12-27T07:23:11.076Z,98975.70
2023-12-27T07:24:11.102Z,98975.07
2023-12-27T07:25:11.067Z,98966.84
2023-12-27T07:26:15.067Z,98964.81
2023-12-27T07:27:11.088Z,98966.91
2023-12-27T07:28:11.070Z,98969.03
2023-12-27T07:29:11.072Z,98970.72
2023-12-27T07:30:11.156Z,98975.05
2023-12-27T07:31:11.299Z,98970.45
2023-12-27T07:32:11.071Z,98972.71
2023-12-27T07:33:11.221Z,98972.50
2023-12-27T07:34:11.272Z,98964.58
2023-12-27T07:35:11.073Z,98972.12
2023-12-27T07:36:11.161Z,98967.00
2023-12-27T07:37:11.066Z,98965.03
2023-12-27T07:38:11.072Z,98959.60
2023-12-27T07:39:11.172Z,98958.62
2023-12-27T07:40:11.068Z,98952.79
2023-12-27T07:41:11.068Z,98948.26
2023-12-27T07:42:11.133Z,98949.73
2023-12-27T07:43:11.164Z,98945.84
2023-12-27T07:44:11.104Z,98946.74
2023-12-27T07:45:11.119Z,98940.44
2023-12-27T07:46:11.111Z,98942.10
2023-12-27T07:47:11.070Z,98943.62
2023-12-27T07:48:11.289Z,98940.42
2023-12-27T07:49:11.159Z,98942.16
2023-12-27T07:50:11.076Z,98929.32
2023-12-27T07:51:11.261Z,98930.16
2023-12-27T07:52:11.066Z,98926.40
2023-12-27T07:53:11.136Z,98926.83
2023-12-27T07:54:11.202Z,98924.17
2023-12-27T07:55:11.097Z,98919.09
2023-12-27T07:56:12.075Z,98919.27
2023-12-27T07:57:11.213Z,98911.89
2023-12-27T07:58:11.180Z,98913.66
2023-12-27T07:59:11.135Z,98911.68
2023-12-27T08:00:12.153Z,98907.48
2023-12-27T08:01:11.189Z,98899.00
2023-12-27T08:02:11.086Z,98904.46
2023-12-27T08:03:13.147Z,98901.61
2023-12-27T08:04:11.202Z,98903.56
2023-12-27T08:05:11.174Z,98896.39
2023-12-27T08:06:11.219Z,98893.22
2023-12-27T08:07:11.116Z,98888.69
2023-12-27T08:08:11.069Z,98884.05
2023-12-27T08:09:11.142Z,98879.18
2023-12-27T08:10:11.146Z,98873.51
2023-12-27T08:11:11.078Z,98873.54
2023-12-27T08:12:11.117Z,98865.29
2023-12-27T08:13:12.073Z,98862.39
2023-12-27T08:14:11.079Z,98858.59
2023-12-27T08:15:11.143Z,98857.81
2023-12-27T08:16:11.081Z,98859.66
2023-12-27T08:17:11.078Z,98854.70
2023-12-27T08:18:11.147Z,98856.93
2023-12-27T08:19:11.173Z,98846.09
2023-12-27T08:20:11.078Z,98840.25
2023-12-27T08:21:11.126Z,98842.82
2023-12-27T08:22:11.087Z,98840.79
2023-12-27T08:23:11.078Z,98844.23
2023-12-27T08:24:11.095Z,98841.95
2023-12-27T08:25:14.137Z,98840.70
2023-12-27T08:26:12.133Z,98830.80
2023-12-27T08:27:11.099Z,98828.90
2023-12-27T08:28:11.087Z,98828.02
2023-12-27T08:29:11.085Z,98829.27
2023-12-27T08:30:11.210Z,98822.36
2023-12-27T08:31:11.199Z,98824.43
2023-12-27T08:32:11.080Z,98819.01
2023-12-27T08:33:11.178Z,98815.03
2023-12-27T08:34:11.209Z,98818.05
2023-12-27T08:35:11.089Z,98822.19
2023-12-27T08:36:11.103Z,98814.27
2023-12-27T08:37:11.095Z,98808.38
2023-12-27T08:38:15.133Z,98806.30
2023-12-27T08:39:11.103Z,98810.68
2023-12-27T08:40:11.090Z,98794.89
2023-12-27T08:41:11.082Z,98794.35
2023-12-27T08:42:11.167Z,98799.97
2023-12-27T08:43:11.092Z,98796.00
2023-12-27T08:44:11.080Z,98791.09
2023-12-27T08:45:11.177Z,98788.39
2023-12-27T08:46:11.088Z,98788.29
2023-12-27T08:47:11.079Z,98801.67
2023-12-27T08:48:11.380Z,98793.62
2023-12-27T08:49:11.192Z,98787.10
2023-12-27T08:50:11.289Z,98785.23
2023-12-27T08:51:11.096Z,98794.00
2023-12-27T08:52:11.088Z,98785.29
2023-12-27T08:53:11.092Z,98789.34
2023-12-27T08:54:11.102Z,98777.47
2023-12-27T08:55:11.098Z,98784.41
2023-12-27T08:56:11.093Z,98783.30
2023-12-27T08:57:11.142Z,98779.86
2023-12-27T08:58:11.094Z,98774.73
2023-12-27T08:59:11.083Z,98764.75
2023-12-27T09:00:13.174Z,98769.39
2023-12-27T09:01:11.138Z,98765.01
2023-12-27T09:02:11.081Z,98749.52
2023-12-27T09:03:11.195Z,98763.48
2023-12-27T09:04:11.232Z,98759.77
2023-12-27T09:05:11.077Z,98758.89
2023-12-27T09:06:11.218Z,98754.20
2023-12-27T09:07:11.155Z,98753.96
2023-12-27T09:08:11.081Z,98742.42
2023-12-27T09:09:12.115Z,98746.93
2023-12-27T09:10:11.085Z,98751.63
2023-12-27T09:11:11.078Z,98741.30
2023-12-27T09:12:11.176Z,98741.67
2023-12-27T09:13:11.085Z,98739.12
2023-12-27T09:14:11.087Z,98744.97
2023-12-27T09:15:11.150Z,98733.71
2023-12-27T09:16:11.076Z,98731.71
2023-12-27T09:17:11.106Z,98730.23
2023-12-27T09:18:11.381Z,98732.11
2023-12-27T09:19:11.223Z,98722.51
2023-12-27T09:20:12.138Z,98719.28
2023-12-27T09:21:11.113Z,98705.46
2023-12-27T09:22:11.104Z,98703.52
2023-12-27T09:23:11.077Z,98705.34
2023-12-27T09:24:11.150Z,98705.60
2023-12-27T09:25:11.076Z,98707.41
2023-12-27T09:26:15.095Z,98690.62
2023-12-27T09:27:12.673Z,98693.93
2023-12-27T09:28:11.083Z,98687.27
2023-12-27T09:29:11.098Z,98695.64
2023-12-27T09:30:11.189Z,98684.20
2023-12-27T09:31:11.353Z,98681.54
2023-12-27T09:32:11.154Z,98680.07
2023-12-27T09:33:11.772Z,98681.88
2023-12-27T09:34:11.231Z,98685.65
2023-12-27T09:35:11.058Z,98682.59
2023-12-27T09:36:11.159Z,98672.07
2023-12-27T09:37:11.057Z,98668.02
2023-12-27T09:38:11.082Z,98669.25
2023-12-27T09:39:11.083Z,98680.36
2023-12-27T09:40:11.066Z,98687.43
2023-12-27T09:41:11.070Z,98658.60
2023-12-27T09:42:11.113Z,98653.52
2023-12-27T09:43:11.060Z,98661.54
2023-12-27T09:44:11.061Z,98650.90
2023-12-27T09:45:15.080Z,98652.65
2023-12-27T09:46:11.088Z,98656.38
2023-12-27T09:47:11.063Z,98664.95
2023-12-27T09:48:12.423Z,98655.35
2023-12-27T09:49:11.185Z,98649.75
2023-12-27T09:50:11.057Z,98647.68
2023-12-27T09:51:14.741Z,98638.38
2023-12-27T09:52:11.066Z,98637.27
2023-12-27T09:53:12.060Z,98641.89
2023-12-27T09:54:11.101Z,98645.89
2023-12-27T09:55:11.061Z,98655.07
2023-12-27T09:56:11.116Z,98660.14
2023-12-27T09:57:11.089Z,98652.53
2023-12-27T09:58:11.078Z,98645.36
2023-12-27T09:59:12.064Z,98644.84
2023-12-27T10:00:12.118Z,98636.11
2023-12-27T10:01:11.347Z,98642.52
2023-12-27T10:02:16.093Z,98640.56
2023-12-27T10:03:12.231Z,98646.88
2023-12-27T10:04:19.063Z,98650.23
2023-12-27T10:05:20.108Z,98652.66
2023-12-27T10:06:19.115Z,98642.88
2023-12-27T10:07:11.065Z,98644.78
2023-12-27T10:08:11.076Z,98632.01
2023-12-27T10:09:12.414Z,98633.34
2023-12-27T10:10:20.612Z,98628.41
2023-12-27T10:11:14.141Z,98619.04
2023-12-27T10:12:11.109Z,98614.09
2023-12-27T10:13:12.067Z,98623.97
2023-12-27T10:14:11.068Z,98616.06
2023-12-27T10:15:12.341Z,98606.33
2023-12-27T10:16:11.070Z,98618.32
2023-12-27T10:17:11.068Z,98614.37
2023-12-27T10:18:11.181Z,98609.19
2023-12-27T10:19:15.131Z,98615.54
2023-12-27T10:20:11.090Z,98615.85
2023-12-27T10:21:12.374Z,98607.12
2023-12-27T10:22:11.087Z,98603.30
2023-12-27T10:23:11.076Z,98617.56
2023-12-27T10:24:11.089Z,98607.29
2023-12-27T10:25:11.068Z,98611.84
2023-12-27T10:26:11.120Z,98610.20
2023-12-27T10:27:12.772Z,98604.16
2023-12-27T10:28:11.088Z,98601.18
2023-12-27T10:29:15.073Z,98594.44
2023-12-27T10:30:11.225Z,98600.81
2023-12-27T10:31:11.131Z,98599.19
2023-12-27T10:32:12.072Z,98590.83
2023-12-27T10:33:14.720Z,98588.07
2023-12-27T10:34:14.177Z,98585.30
2023-12-27T10:35:11.227Z,98597.13
2023-12-27T10:36:11.124Z,98595.10
2023-12-27T10:37:15.073Z,98578.74
2023-12-27T10:38:11.068Z,98586.41
2023-12-27T10:39:11.908Z,98578.70
2023-12-27T10:40:12.077Z,98578.69
2023-12-27T10:41:11.093Z,98574.04
2023-12-27T10:42:11.093Z,98568.67
2023-12-27T10:43:11.071Z,98562.98
2023-12-27T10:44:11.096Z,98546.69
2023-12-27T10:45:12.494Z,98570.32
2023-12-27T10:46:12.105Z,98572.68
2023-12-27T10:47:11.074Z,98555.80
2023-12-27T10:48:12.300Z,98557.95
2023-12-27T10:49:11.147Z,98553.57
2023-12-27T10:50:11.076Z,98545.83
2023-12-27T10:51:11.126Z,98552.64
2023-12-27T10:52:11.068Z,98555.08
2023-12-27T10:53:13.185Z,98550.96
2023-12-27T10:54:11.147Z,98552.92
2023-12-27T10:55:17.074Z,98533.95
2023-12-27T10:56:11.076Z,98548.98
2023-12-27T10:57:14.086Z,98547.09
2023-12-27T10:58:18.095Z,98536.02
2023-12-27T10:59:11.075Z,98545.51
2023-12-27T11:00:13.228Z,98545.84
2023-12-27T11:01:11.142Z,98540.26
2023-12-27T11:02:11.072Z,98526.79
2023-12-27T11:03:12.173Z,98531.38
2023-12-27T11:04:11.219Z,98520.53
2023-12-27T11:05:11.087Z,98535.00
2023-12-27T11:06:11.139Z,98525.02
2023-12-27T11:07:11.110Z,98530.57
2023-12-27T11:08:11.074Z,98535.28
2023-12-27T11:09:12.106Z,98513.01
2023-12-27T11:10:11.088Z,98513.38
2023-12-27T11:11:11.077Z,98510.54
2023-12-27T11:12:11.132Z,98515.98
2023-12-27T11:13:11.087Z,98502.61
2023-12-27T11:14:13.083Z,98514.09
2023-12-27T11:15:11.113Z,98514.73
2023-12-27T11:16:11.097Z,98509.42
2023-12-27T11:17:11.088Z,98501.36
2023-12-27T11:18:11.399Z,98508.24
2023-12-27T11:19:11.186Z,98499.88
2023-12-27T11:20:13.081Z,98481.86
2023-12-27T11:21:11.118Z,98487.40
2023-12-27T11:22:11.079Z,98490.98
2023-12-27T11:23:11.088Z,98499.96
2023-12-27T11:24:11.123Z,98487.30
2023-12-27T11:25:11.079Z,98491.40
2023-12-27T11:26:11.080Z,98488.51
2023-12-27T11:27:11.126Z,98464.82
2023-12-27T11:28:11.089Z,98475.20
2023-12-27T11:29:11.110Z,98491.97
2023-12-27T11:30:14.274Z,98472.04
2023-12-27T11:31:11.258Z,98473.43
2023-12-27T11:32:11.088Z,98459.62
2023-12-27T11:33:11.165Z,98461.52
2023-12-27T11:34:11.222Z,98465.62
2023-12-27T11:35:11.148Z,98457.20
2023-12-27T11:36:11.109Z,98449.61
2023-12-27T11:37:13.089Z,98468.87
2023-12-27T11:38:20.089Z,98451.41
2023-12-27T11:39:19.157Z,98458.10
2023-12-27T11:40:11.084Z,98439.57
2023-12-27T11:41:11.111Z,98452.46
2023-12-27T11:42:11.112Z,98449.84
2023-12-27T11:43:11.083Z,98434.03